sensor_id;sensor_type;location;lat;lon;timestamp;temperature;humidity
82183;DHT22;71763;52.220;13.000;2024-02-28T00:00:26;5.20;62.70
82183;DHT22;71763;52.220;13.000;2024-02-28T00:02:51;5.20;62.70
82183;DHT22;71763;52.220;13.000;2024-02-28T00:05:17;5.20;62.70
82183;DHT22;71763;52.220;13.000;2024-02-28T00:07:42;5.20;62.70
82183;DHT22;71763;52.220;13.000;2024-02-28T00:10:08;5.20;63.40
82183;DHT22;71763;52.220;13.000;2024-02-28T00:12:33;5.20;62.70
82183;DHT22;71763;52.220;13.000;2024-02-28T00:14:59;5.20;62.70
82183;DHT22;71763;52.220;13.000;2024-02-28T00:17:25;5.20;62.70
82183;DHT22;71763;52.220;13.000;2024-02-28T00:19:50;5.20;62.70
82183;DHT22;71763;52.220;13.000;2024-02-28T00:22:16;5.20;62.70
82183;DHT22;71763;52.220;13.000;2024-02-28T00:24:41;5.20;62.80
82183;DHT22;71763;52.220;13.000;2024-02-28T00:27:07;5.20;62.80
82183;DHT22;71763;52.220;13.000;2024-02-28T00:29:33;5.20;62.80
82183;DHT22;71763;52.220;13.000;2024-02-28T00:31:58;5.20;62.70
82183;DHT22;71763;52.220;13.000;2024-02-28T00:34:24;5.20;62.70
82183;DHT22;71763;52.220;13.000;2024-02-28T00:36:49;5.20;62.80
82183;DHT22;71763;52.220;13.000;2024-02-28T00:39:14;5.20;62.90
82183;DHT22;71763;52.220;13.000;2024-02-28T00:41:42;5.20;62.80
82183;DHT22;71763;52.220;13.000;2024-02-28T00:44:08;5.20;62.90
82183;DHT22;71763;52.220;13.000;2024-02-28T00:46:34;5.10;62.90
82183;DHT22;71763;52.220;13.000;2024-02-28T00:48:59;5.10;62.90
82183;DHT22;71763;52.220;13.000;2024-02-28T00:51:25;5.10;62.90
82183;DHT22;71763;52.220;13.000;2024-02-28T00:53:50;5.10;62.90
82183;DHT22;71763;52.220;13.000;2024-02-28T00:56:16;5.10;63.00
82183;DHT22;71763;52.220;13.000;2024-02-28T00:58:43;5.10;63.00
82183;DHT22;71763;52.220;13.000;2024-02-28T01:01:09;5.10;63.00
82183;DHT22;71763;52.220;13.000;2024-02-28T01:03:34;5.20;63.20
82183;DHT22;71763;52.220;13.000;2024-02-28T01:06:00;5.10;62.90
82183;DHT22;71763;52.220;13.000;2024-02-28T01:08:26;5.10;63.00
82183;DHT22;71763;52.220;13.000;2024-02-28T01:10:52;5.10;63.00
82183;DHT22;71763;52.220;13.000;2024-02-28T01:13:17;5.10;63.00
82183;DHT22;71763;52.220;13.000;2024-02-28T01:15:43;5.10;63.00
82183;DHT22;71763;52.220;13.000;2024-02-28T01:18:09;5.10;63.00
82183;DHT22;71763;52.220;13.000;2024-02-28T01:20:34;5.10;63.00
82183;DHT22;71763;52.220;13.000;2024-02-28T01:22:59;5.10;63.80
82183;DHT22;71763;52.220;13.000;2024-02-28T01:25:25;5.10;63.10
82183;DHT22;71763;52.220;13.000;2024-02-28T01:27:50;5.10;63.10
82183;DHT22;71763;52.220;13.000;2024-02-28T01:30:16;5.10;63.20
82183;DHT22;71763;52.220;13.000;2024-02-28T01:32:41;5.10;63.10
82183;DHT22;71763;52.220;13.000;2024-02-28T01:35:08;5.10;63.10
82183;DHT22;71763;52.220;13.000;2024-02-28T01:37:33;5.10;63.10
82183;DHT22;71763;52.220;13.000;2024-02-28T01:39:59;5.10;63.10
82183;DHT22;71763;52.220;13.000;2024-02-28T01:42:24;5.10;63.20
82183;DHT22;71763;52.220;13.000;2024-02-28T01:44:50;5.10;63.10
82183;DHT22;71763;52.220;13.000;2024-02-28T01:47:15;5.10;63.10
82183;DHT22;71763;52.220;13.000;2024-02-28T01:49:41;5.10;63.10
82183;DHT22;71763;52.220;13.000;2024-02-28T01:52:08;5.10;63.20
82183;DHT22;71763;52.220;13.000;2024-02-28T01:54:34;5.10;63.20
82183;DHT22;71763;52.220;13.000;2024-02-28T01:57:00;5.10;63.20
82183;DHT22;71763;52.220;13.000;2024-02-28T01:59:26;5.10;63.20
82183;DHT22;71763;52.220;13.000;2024-02-28T02:01:51;5.10;63.10
82183;DHT22;71763;52.220;13.000;2024-02-28T02:04:18;5.10;63.20
82183;DHT22;71763;52.220;13.000;2024-02-28T02:06:43;5.20;63.30
82183;DHT22;71763;52.220;13.000;2024-02-28T02:09:10;5.10;63.20
82183;DHT22;71763;52.220;13.000;2024-02-28T02:11:36;5.10;63.20
82183;DHT22;71763;52.220;13.000;2024-02-28T02:14:02;5.10;63.40
82183;DHT22;71763;52.220;13.000;2024-02-28T02:16:28;5.10;63.40
82183;DHT22;71763;52.220;13.000;2024-02-28T02:18:54;5.10;63.40
82183;DHT22;71763;52.220;13.000;2024-02-28T02:21:20;5.10;63.30
82183;DHT22;71763;52.220;13.000;2024-02-28T02:23:47;5.10;63.40
82183;DHT22;71763;52.220;13.000;2024-02-28T02:26:12;5.10;63.40
82183;DHT22;71763;52.220;13.000;2024-02-28T02:28:38;5.00;63.30
82183;DHT22;71763;52.220;13.000;2024-02-28T02:31:03;5.10;63.50
82183;DHT22;71763;52.220;13.000;2024-02-28T02:33:29;5.10;63.50
82183;DHT22;71763;52.220;13.000;2024-02-28T02:35:54;5.00;63.40
82183;DHT22;71763;52.220;13.000;2024-02-28T02:38:20;5.20;63.70
82183;DHT22;71763;52.220;13.000;2024-02-28T02:40:49;5.00;63.50
82183;DHT22;71763;52.220;13.000;2024-02-28T02:43:15;5.00;63.50
82183;DHT22;71763;52.220;13.000;2024-02-28T02:45:40;5.00;63.50
82183;DHT22;71763;52.220;13.000;2024-02-28T02:48:06;5.00;63.40
82183;DHT22;71763;52.220;13.000;2024-02-28T02:50:31;5.00;63.50
82183;DHT22;71763;52.220;13.000;2024-02-28T02:52:57;5.00;63.60
82183;DHT22;71763;52.220;13.000;2024-02-28T02:55:22;5.00;63.60
82183;DHT22;71763;52.220;13.000;2024-02-28T02:57:48;5.00;63.60
82183;DHT22;71763;52.220;13.000;2024-02-28T03:00:13;5.00;63.70
82183;DHT22;71763;52.220;13.000;2024-02-28T03:02:39;5.00;63.60
82183;DHT22;71763;52.220;13.000;2024-02-28T03:05:05;5.10;63.80
82183;DHT22;71763;52.220;13.000;2024-02-28T03:07:31;5.00;63.70
82183;DHT22;71763;52.220;13.000;2024-02-28T03:09:57;5.00;63.70
82183;DHT22;71763;52.220;13.000;2024-02-28T03:12:23;4.90;63.60
82183;DHT22;71763;52.220;13.000;2024-02-28T03:14:48;4.90;63.60
82183;DHT22;71763;52.220;13.000;2024-02-28T03:17:14;4.90;63.50
82183;DHT22;71763;52.220;13.000;2024-02-28T03:19:41;4.90;63.60
82183;DHT22;71763;52.220;13.000;2024-02-28T03:22:06;4.90;63.70
82183;DHT22;71763;52.220;13.000;2024-02-28T03:24:32;4.90;63.70
82183;DHT22;71763;52.220;13.000;2024-02-28T03:27:03;4.80;63.70
82183;DHT22;71763;52.220;13.000;2024-02-28T03:29:29;4.80;63.60
82183;DHT22;71763;52.220;13.000;2024-02-28T03:31:54;4.80;63.70
82183;DHT22;71763;52.220;13.000;2024-02-28T03:34:20;4.80;63.70
82183;DHT22;71763;52.220;13.000;2024-02-28T03:36:45;4.80;63.70
82183;DHT22;71763;52.220;13.000;2024-02-28T03:39:11;4.90;63.80
82183;DHT22;71763;52.220;13.000;2024-02-28T03:41:37;4.90;63.80
82183;DHT22;71763;52.220;13.000;2024-02-28T03:44:02;4.90;63.80
82183;DHT22;71763;52.220;13.000;2024-02-28T03:46:28;4.90;63.80
82183;DHT22;71763;52.220;13.000;2024-02-28T03:48:53;5.10;64.00
82183;DHT22;71763;52.220;13.000;2024-02-28T03:51:19;4.90;63.80
82183;DHT22;71763;52.220;13.000;2024-02-28T03:53:44;4.90;63.80
82183;DHT22;71763;52.220;13.000;2024-02-28T03:56:09;4.90;63.80
82183;DHT22;71763;52.220;13.000;2024-02-28T03:58:36;4.90;63.90
82183;DHT22;71763;52.220;13.000;2024-02-28T04:01:02;4.90;63.80
82183;DHT22;71763;52.220;13.000;2024-02-28T04:03:27;4.90;63.80
82183;DHT22;71763;52.220;13.000;2024-02-28T04:05:53;4.90;63.80
82183;DHT22;71763;52.220;13.000;2024-02-28T04:08:18;4.80;63.80
82183;DHT22;71763;52.220;13.000;2024-02-28T04:10:44;4.90;63.90
82183;DHT22;71763;52.220;13.000;2024-02-28T04:13:09;4.80;63.80
82183;DHT22;71763;52.220;13.000;2024-02-28T04:15:35;4.90;63.90
82183;DHT22;71763;52.220;13.000;2024-02-28T04:18:00;4.90;63.90
82183;DHT22;71763;52.220;13.000;2024-02-28T04:20:26;4.90;63.90
82183;DHT22;71763;52.220;13.000;2024-02-28T04:22:51;4.90;63.90
82183;DHT22;71763;52.220;13.000;2024-02-28T04:25:17;4.90;63.90
82183;DHT22;71763;52.220;13.000;2024-02-28T04:27:42;4.90;63.90
82183;DHT22;71763;52.220;13.000;2024-02-28T04:30:09;4.90;63.90
82183;DHT22;71763;52.220;13.000;2024-02-28T04:32:35;4.90;64.00
82183;DHT22;71763;52.220;13.000;2024-02-28T04:35:01;4.90;64.00
82183;DHT22;71763;52.220;13.000;2024-02-28T04:37:28;4.90;64.00
82183;DHT22;71763;52.220;13.000;2024-02-28T04:39:53;4.90;64.00
82183;DHT22;71763;52.220;13.000;2024-02-28T04:42:19;4.90;64.00
82183;DHT22;71763;52.220;13.000;2024-02-28T04:44:45;4.90;64.00
82183;DHT22;71763;52.220;13.000;2024-02-28T04:47:10;4.90;64.00
82183;DHT22;71763;52.220;13.000;2024-02-28T04:49:37;4.90;64.00
82183;DHT22;71763;52.220;13.000;2024-02-28T04:52:03;4.90;64.00
82183;DHT22;71763;52.220;13.000;2024-02-28T04:54:28;4.90;64.00
82183;DHT22;71763;52.220;13.000;2024-02-28T04:56:54;4.90;64.00
82183;DHT22;71763;52.220;13.000;2024-02-28T04:59:19;5.10;64.20
82183;DHT22;71763;52.220;13.000;2024-02-28T05:01:45;4.90;64.00
82183;DHT22;71763;52.220;13.000;2024-02-28T05:04:11;4.90;64.00
82183;DHT22;71763;52.220;13.000;2024-02-28T05:06:36;4.90;64.00
82183;DHT22;71763;52.220;13.000;2024-02-28T05:09:02;4.90;64.00
82183;DHT22;71763;52.220;13.000;2024-02-28T05:11:28;4.90;64.00
82183;DHT22;71763;52.220;13.000;2024-02-28T05:13:53;4.70;63.80
82183;DHT22;71763;52.220;13.000;2024-02-28T05:16:19;4.80;64.00
82183;DHT22;71763;52.220;13.000;2024-02-28T05:18:44;4.80;64.00
82183;DHT22;71763;52.220;13.000;2024-02-28T05:21:10;4.80;64.00
82183;DHT22;71763;52.220;13.000;2024-02-28T05:23:36;4.80;64.00
82183;DHT22;71763;52.220;13.000;2024-02-28T05:26:01;4.80;64.10
82183;DHT22;71763;52.220;13.000;2024-02-28T05:28:32;4.70;64.00
82183;DHT22;71763;52.220;13.000;2024-02-28T05:31:03;4.70;64.00
82183;DHT22;71763;52.220;13.000;2024-02-28T05:33:44;4.80;64.00
82183;DHT22;71763;52.220;13.000;2024-02-28T05:36:10;4.80;64.10
82183;DHT22;71763;52.220;13.000;2024-02-28T05:38:36;4.80;64.00
82183;DHT22;71763;52.220;13.000;2024-02-28T05:41:01;4.80;64.10
82183;DHT22;71763;52.220;13.000;2024-02-28T05:43:27;4.80;64.00
82183;DHT22;71763;52.220;13.000;2024-02-28T05:45:52;4.80;64.00
82183;DHT22;71763;52.220;13.000;2024-02-28T05:48:18;4.70;63.90
82183;DHT22;71763;52.220;13.000;2024-02-28T05:50:44;4.80;64.00
82183;DHT22;71763;52.220;13.000;2024-02-28T05:53:09;4.70;63.90
82183;DHT22;71763;52.220;13.000;2024-02-28T05:55:35;4.70;63.90
82183;DHT22;71763;52.220;13.000;2024-02-28T05:58:00;4.70;63.90
82183;DHT22;71763;52.220;13.000;2024-02-28T06:00:26;4.70;64.00
82183;DHT22;71763;52.220;13.000;2024-02-28T06:02:53;4.70;63.90
82183;DHT22;71763;52.220;13.000;2024-02-28T06:05:19;4.70;64.00
82183;DHT22;71763;52.220;13.000;2024-02-28T06:07:44;4.60;64.00
82183;DHT22;71763;52.220;13.000;2024-02-28T06:10:09;4.60;64.00
82183;DHT22;71763;52.220;13.000;2024-02-28T06:12:36;4.60;64.00
82183;DHT22;71763;52.220;13.000;2024-02-28T06:15:01;4.60;64.00
82183;DHT22;71763;52.220;13.000;2024-02-28T06:17:27;4.60;64.00
82183;DHT22;71763;52.220;13.000;2024-02-28T06:19:52;4.60;64.00
82183;DHT22;71763;52.220;13.000;2024-02-28T06:22:18;4.60;64.00
82183;DHT22;71763;52.220;13.000;2024-02-28T06:24:44;4.80;64.20
82183;DHT22;71763;52.220;13.000;2024-02-28T06:27:10;4.60;63.90
82183;DHT22;71763;52.220;13.000;2024-02-28T06:29:38;4.60;64.00
82183;DHT22;71763;52.220;13.000;2024-02-28T06:32:03;4.50;63.80
82183;DHT22;71763;52.220;13.000;2024-02-28T06:34:29;4.50;64.00
82183;DHT22;71763;52.220;13.000;2024-02-28T06:36:54;4.50;63.90
82183;DHT22;71763;52.220;13.000;2024-02-28T06:39:20;4.40;63.80
82183;DHT22;71763;52.220;13.000;2024-02-28T06:41:45;4.40;63.80
82183;DHT22;71763;52.220;13.000;2024-02-28T06:44:11;4.40;63.80
82183;DHT22;71763;52.220;13.000;2024-02-28T06:46:36;4.40;63.80
82183;DHT22;71763;52.220;13.000;2024-02-28T06:49:02;4.40;63.90
82183;DHT22;71763;52.220;13.000;2024-02-28T06:51:28;4.40;63.90
82183;DHT22;71763;52.220;13.000;2024-02-28T06:53:53;4.30;63.90
82183;DHT22;71763;52.220;13.000;2024-02-28T06:56:19;4.30;63.90
82183;DHT22;71763;52.220;13.000;2024-02-28T06:58:44;4.20;63.90
82183;DHT22;71763;52.220;13.000;2024-02-28T07:01:10;4.20;64.10
82183;DHT22;71763;52.220;13.000;2024-02-28T07:03:35;4.20;64.10
82183;DHT22;71763;52.220;13.000;2024-02-28T07:06:03;4.20;64.10
82183;DHT22;71763;52.220;13.000;2024-02-28T07:08:29;4.10;64.00
82183;DHT22;71763;52.220;13.000;2024-02-28T07:10:54;4.20;63.90
82183;DHT22;71763;52.220;13.000;2024-02-28T07:13:20;4.20;63.90
82183;DHT22;71763;52.220;13.000;2024-02-28T07:15:47;4.20;63.80
82183;DHT22;71763;52.220;13.000;2024-02-28T07:18:12;4.20;63.70
82183;DHT22;71763;52.220;13.000;2024-02-28T07:20:38;4.20;63.80
82183;DHT22;71763;52.220;13.000;2024-02-28T07:23:03;4.30;63.70
82183;DHT22;71763;52.220;13.000;2024-02-28T07:25:29;4.30;63.70
82183;DHT22;71763;52.220;13.000;2024-02-28T07:27:56;4.30;63.60
82183;DHT22;71763;52.220;13.000;2024-02-28T07:30:22;4.30;63.50
82183;DHT22;71763;52.220;13.000;2024-02-28T07:32:48;4.40;63.50
82183;DHT22;71763;52.220;13.000;2024-02-28T07:35:14;4.40;63.50
82183;DHT22;71763;52.220;13.000;2024-02-28T07:37:42;4.40;63.40
82183;DHT22;71763;52.220;13.000;2024-02-28T07:40:07;4.40;63.40
82183;DHT22;71763;52.220;13.000;2024-02-28T07:42:33;4.50;63.40
82183;DHT22;71763;52.220;13.000;2024-02-28T07:45:00;4.50;63.40
82183;DHT22;71763;52.220;13.000;2024-02-28T07:47:26;4.50;63.30
82183;DHT22;71763;52.220;13.000;2024-02-28T07:49:51;4.60;63.20
82183;DHT22;71763;52.220;13.000;2024-02-28T07:52:20;4.70;63.30
82183;DHT22;71763;52.220;13.000;2024-02-28T07:54:46;4.70;63.20
82183;DHT22;71763;52.220;13.000;2024-02-28T07:57:12;4.70;63.20
82183;DHT22;71763;52.220;13.000;2024-02-28T07:59:38;4.80;63.10
82183;DHT22;71763;52.220;13.000;2024-02-28T08:02:04;4.90;63.10
82183;DHT22;71763;52.220;13.000;2024-02-28T08:04:29;4.90;63.00
82183;DHT22;71763;52.220;13.000;2024-02-28T08:06:56;4.90;62.90
82183;DHT22;71763;52.220;13.000;2024-02-28T08:09:22;5.00;63.00
82183;DHT22;71763;52.220;13.000;2024-02-28T08:11:49;5.00;62.90
82183;DHT22;71763;52.220;13.000;2024-02-28T08:14:14;5.10;63.00
82183;DHT22;71763;52.220;13.000;2024-02-28T08:16:42;5.10;63.00
82183;DHT22;71763;52.220;13.000;2024-02-28T08:19:08;5.20;63.00
82183;DHT22;71763;52.220;13.000;2024-02-28T08:21:34;5.20;62.90
82183;DHT22;71763;52.220;13.000;2024-02-28T08:23:59;5.20;62.90
82183;DHT22;71763;52.220;13.000;2024-02-28T08:26:27;5.30;62.90
82183;DHT22;71763;52.220;13.000;2024-02-28T08:28:53;5.30;62.80
82183;DHT22;71763;52.220;13.000;2024-02-28T08:31:18;5.30;62.80
82183;DHT22;71763;52.220;13.000;2024-02-28T08:33:45;5.30;62.90
82183;DHT22;71763;52.220;13.000;2024-02-28T08:36:14;5.20;62.90
82183;DHT22;71763;52.220;13.000;2024-02-28T08:38:40;5.30;63.10
82183;DHT22;71763;52.220;13.000;2024-02-28T08:41:06;5.30;63.10
82183;DHT22;71763;52.220;13.000;2024-02-28T08:43:33;5.30;63.10
82183;DHT22;71763;52.220;13.000;2024-02-28T08:45:58;5.20;63.00
82183;DHT22;71763;52.220;13.000;2024-02-28T08:48:24;5.20;63.10
82183;DHT22;71763;52.220;13.000;2024-02-28T08:50:50;5.30;63.10
82183;DHT22;71763;52.220;13.000;2024-02-28T08:53:15;5.30;63.10
82183;DHT22;71763;52.220;13.000;2024-02-28T08:55:41;5.40;63.00
82183;DHT22;71763;52.220;13.000;2024-02-28T08:58:07;5.40;63.00
82183;DHT22;71763;52.220;13.000;2024-02-28T09:00:32;5.40;62.80
82183;DHT22;71763;52.220;13.000;2024-02-28T09:02:58;5.50;62.80
82183;DHT22;71763;52.220;13.000;2024-02-28T09:05:23;5.40;62.70
82183;DHT22;71763;52.220;13.000;2024-02-28T09:07:49;5.50;62.80
82183;DHT22;71763;52.220;13.000;2024-02-28T09:10:16;5.50;62.70
82183;DHT22;71763;52.220;13.000;2024-02-28T09:12:46;5.60;62.60
82183;DHT22;71763;52.220;13.000;2024-02-28T09:15:15;5.60;62.50
82183;DHT22;71763;52.220;13.000;2024-02-28T09:17:43;5.70;62.40
82183;DHT22;71763;52.220;13.000;2024-02-28T09:20:09;5.80;63.00
82183;DHT22;71763;52.220;13.000;2024-02-28T09:22:35;5.80;62.20
82183;DHT22;71763;52.220;13.000;2024-02-28T09:25:00;5.80;62.20
82183;DHT22;71763;52.220;13.000;2024-02-28T09:27:29;5.80;62.10
82183;DHT22;71763;52.220;13.000;2024-02-28T09:29:55;5.90;62.10
82183;DHT22;71763;52.220;13.000;2024-02-28T09:32:20;5.90;61.90
82183;DHT22;71763;52.220;13.000;2024-02-28T09:34:46;6.00;61.90
82183;DHT22;71763;52.220;13.000;2024-02-28T09:37:13;6.00;61.80
82183;DHT22;71763;52.220;13.000;2024-02-28T09:39:38;6.10;61.70
82183;DHT22;71763;52.220;13.000;2024-02-28T09:42:07;6.10;61.70
82183;DHT22;71763;52.220;13.000;2024-02-28T09:44:36;6.10;61.60
82183;DHT22;71763;52.220;13.000;2024-02-28T09:47:05;6.10;61.70
82183;DHT22;71763;52.220;13.000;2024-02-28T09:49:31;6.10;61.80
82183;DHT22;71763;52.220;13.000;2024-02-28T09:51:57;6.10;61.80
82183;DHT22;71763;52.220;13.000;2024-02-28T09:54:22;6.10;61.90
82183;DHT22;71763;52.220;13.000;2024-02-28T09:57:11;6.10;61.90
82183;DHT22;71763;52.220;13.000;2024-02-28T09:59:36;6.10;61.90
82183;DHT22;71763;52.220;13.000;2024-02-28T10:02:02;6.10;61.80
82183;DHT22;71763;52.220;13.000;2024-02-28T10:04:28;6.20;61.80
82183;DHT22;71763;52.220;13.000;2024-02-28T10:06:54;6.30;61.70
82183;DHT22;71763;52.220;13.000;2024-02-28T10:09:20;6.20;61.60
82183;DHT22;71763;52.220;13.000;2024-02-28T10:11:45;6.20;61.60
82183;DHT22;71763;52.220;13.000;2024-02-28T10:14:12;6.20;61.60
82183;DHT22;71763;52.220;13.000;2024-02-28T10:16:37;6.20;61.60
82183;DHT22;71763;52.220;13.000;2024-02-28T10:19:04;6.20;61.50
82183;DHT22;71763;52.220;13.000;2024-02-28T10:21:30;6.30;61.40
82183;DHT22;71763;52.220;13.000;2024-02-28T10:23:59;6.20;61.30
82183;DHT22;71763;52.220;13.000;2024-02-28T10:26:24;6.30;61.30
82183;DHT22;71763;52.220;13.000;2024-02-28T10:28:50;6.30;61.20
82183;DHT22;71763;52.220;13.000;2024-02-28T10:31:16;6.30;61.20
82183;DHT22;71763;52.220;13.000;2024-02-28T10:33:42;6.30;61.20
82183;DHT22;71763;52.220;13.000;2024-02-28T10:36:08;6.30;61.10
82183;DHT22;71763;52.220;13.000;2024-02-28T10:38:37;6.30;61.00
82183;DHT22;71763;52.220;13.000;2024-02-28T10:41:04;6.30;61.00
82183;DHT22;71763;52.220;13.000;2024-02-28T10:43:29;6.30;60.90
82183;DHT22;71763;52.220;13.000;2024-02-28T10:45:56;6.30;60.80
82183;DHT22;71763;52.220;13.000;2024-02-28T10:48:22;6.30;60.80
82183;DHT22;71763;52.220;13.000;2024-02-28T10:50:48;6.30;60.70
82183;DHT22;71763;52.220;13.000;2024-02-28T10:53:14;6.30;60.80
82183;DHT22;71763;52.220;13.000;2024-02-28T10:55:41;6.30;60.70
82183;DHT22;71763;52.220;13.000;2024-02-28T10:58:07;6.40;60.70
82183;DHT22;71763;52.220;13.000;2024-02-28T11:00:34;6.40;60.70
82183;DHT22;71763;52.220;13.000;2024-02-28T11:03:00;6.40;60.60
82183;DHT22;71763;52.220;13.000;2024-02-28T11:05:35;6.40;60.60
82183;DHT22;71763;52.220;13.000;2024-02-28T11:08:01;6.50;60.50
82183;DHT22;71763;52.220;13.000;2024-02-28T11:10:30;6.50;60.30
82183;DHT22;71763;52.220;13.000;2024-02-28T11:12:57;6.70;60.20
82183;DHT22;71763;52.220;13.000;2024-02-28T11:15:24;6.70;60.00
82183;DHT22;71763;52.220;13.000;2024-02-28T11:17:50;6.80;60.70
82183;DHT22;71763;52.220;13.000;2024-02-28T11:20:15;6.80;59.90
82183;DHT22;71763;52.220;13.000;2024-02-28T11:22:41;7.00;59.90
82183;DHT22;71763;52.220;13.000;2024-02-28T11:25:07;7.00;59.80
82183;DHT22;71763;52.220;13.000;2024-02-28T11:27:33;7.10;59.60
82183;DHT22;71763;52.220;13.000;2024-02-28T11:29:58;7.10;59.60
82183;DHT22;71763;52.220;13.000;2024-02-28T11:32:24;7.20;59.10
82183;DHT22;71763;52.220;13.000;2024-02-28T11:34:50;7.20;59.50
82183;DHT22;71763;52.220;13.000;2024-02-28T11:37:21;7.20;59.50
82183;DHT22;71763;52.220;13.000;2024-02-28T11:39:47;7.30;59.40
82183;DHT22;71763;52.220;13.000;2024-02-28T11:42:13;7.30;59.40
82183;DHT22;71763;52.220;13.000;2024-02-28T11:44:39;7.30;59.40
82183;DHT22;71763;52.220;13.000;2024-02-28T11:47:05;7.30;59.40
82183;DHT22;71763;52.220;13.000;2024-02-28T11:49:34;7.40;59.40
82183;DHT22;71763;52.220;13.000;2024-02-28T11:51:59;7.50;59.00
82183;DHT22;71763;52.220;13.000;2024-02-28T11:54:25;7.50;59.20
82183;DHT22;71763;52.220;13.000;2024-02-28T11:56:50;7.60;59.20
82183;DHT22;71763;52.220;13.000;2024-02-28T11:59:16;7.70;58.90
82183;DHT22;71763;52.220;13.000;2024-02-28T12:01:42;7.80;58.70
82183;DHT22;71763;52.220;13.000;2024-02-28T12:04:09;7.90;58.50
82183;DHT22;71763;52.220;13.000;2024-02-28T12:06:36;8.00;58.20
82183;DHT22;71763;52.220;13.000;2024-02-28T12:09:02;8.10;57.90
82183;DHT22;71763;52.220;13.000;2024-02-28T12:11:29;8.20;57.80
82183;DHT22;71763;52.220;13.000;2024-02-28T12:13:54;8.30;57.60
82183;DHT22;71763;52.220;13.000;2024-02-28T12:16:29;8.40;57.40
82183;DHT22;71763;52.220;13.000;2024-02-28T12:18:55;8.60;57.30
82183;DHT22;71763;52.220;13.000;2024-02-28T12:21:20;9.00;57.60
82183;DHT22;71763;52.220;13.000;2024-02-28T12:23:49;9.60;57.00
82183;DHT22;71763;52.220;13.000;2024-02-28T12:26:18;10.10;55.20
82183;DHT22;71763;52.220;13.000;2024-02-28T12:28:44;10.20;54.60
82183;DHT22;71763;52.220;13.000;2024-02-28T12:31:10;10.30;54.70
82183;DHT22;71763;52.220;13.000;2024-02-28T12:33:37;10.30;54.70
82183;DHT22;71763;52.220;13.000;2024-02-28T12:36:03;10.20;54.90
82183;DHT22;71763;52.220;13.000;2024-02-28T12:38:30;10.10;55.10
82183;DHT22;71763;52.220;13.000;2024-02-28T12:40:56;9.80;56.40
82183;DHT22;71763;52.220;13.000;2024-02-28T12:43:21;9.60;57.00
82183;DHT22;71763;52.220;13.000;2024-02-28T12:45:47;9.40;57.50
82183;DHT22;71763;52.220;13.000;2024-02-28T12:48:12;9.10;57.60
82183;DHT22;71763;52.220;13.000;2024-02-28T12:50:37;8.90;57.50
82183;DHT22;71763;52.220;13.000;2024-02-28T12:53:03;8.80;57.90
82183;DHT22;71763;52.220;13.000;2024-02-28T12:55:29;8.60;58.20
82183;DHT22;71763;52.220;13.000;2024-02-28T12:57:55;8.50;58.40
82183;DHT22;71763;52.220;13.000;2024-02-28T13:00:20;8.50;58.70
82183;DHT22;71763;52.220;13.000;2024-02-28T13:02:46;8.30;58.60
82183;DHT22;71763;52.220;13.000;2024-02-28T13:05:12;8.20;58.80
82183;DHT22;71763;52.220;13.000;2024-02-28T13:07:40;8.10;58.90
82183;DHT22;71763;52.220;13.000;2024-02-28T13:10:06;8.10;59.00
82183;DHT22;71763;52.220;13.000;2024-02-28T13:12:31;8.00;59.00
82183;DHT22;71763;52.220;13.000;2024-02-28T13:14:58;8.00;59.00
82183;DHT22;71763;52.220;13.000;2024-02-28T13:17:24;7.90;58.90
82183;DHT22;71763;52.220;13.000;2024-02-28T13:19:49;7.90;59.10
82183;DHT22;71763;52.220;13.000;2024-02-28T13:22:15;7.90;58.90
82183;DHT22;71763;52.220;13.000;2024-02-28T13:24:40;7.80;59.00
82183;DHT22;71763;52.220;13.000;2024-02-28T13:27:06;7.80;59.00
82183;DHT22;71763;52.220;13.000;2024-02-28T13:29:31;7.70;58.80
82183;DHT22;71763;52.220;13.000;2024-02-28T13:31:58;7.70;58.90
82183;DHT22;71763;52.220;13.000;2024-02-28T13:34:23;7.70;58.80
82183;DHT22;71763;52.220;13.000;2024-02-28T13:36:49;7.60;58.90
82183;DHT22;71763;52.220;13.000;2024-02-28T13:39:15;7.50;58.80
82183;DHT22;71763;52.220;13.000;2024-02-28T13:41:41;7.50;60.00
82183;DHT22;71763;52.220;13.000;2024-02-28T13:44:07;7.40;59.30
82183;DHT22;71763;52.220;13.000;2024-02-28T13:46:34;7.40;58.80
82183;DHT22;71763;52.220;13.000;2024-02-28T13:49:00;7.40;59.40
82183;DHT22;71763;52.220;13.000;2024-02-28T13:51:26;7.30;59.30
82183;DHT22;71763;52.220;13.000;2024-02-28T13:53:51;7.30;59.20
82183;DHT22;71763;52.220;13.000;2024-02-28T13:56:19;7.30;59.30
82183;DHT22;71763;52.220;13.000;2024-02-28T13:58:50;7.30;59.10
82183;DHT22;71763;52.220;13.000;2024-02-28T14:01:17;7.30;59.30
82183;DHT22;71763;52.220;13.000;2024-02-28T14:03:44;7.30;59.10
82183;DHT22;71763;52.220;13.000;2024-02-28T14:06:10;7.30;59.00
82183;DHT22;71763;52.220;13.000;2024-02-28T14:08:35;7.30;59.30
82183;DHT22;71763;52.220;13.000;2024-02-28T14:11:01;7.20;59.20
82183;DHT22;71763;52.220;13.000;2024-02-28T14:13:27;7.20;59.20
82183;DHT22;71763;52.220;13.000;2024-02-28T14:15:52;7.20;59.20
82183;DHT22;71763;52.220;13.000;2024-02-28T14:18:19;7.20;59.20
82183;DHT22;71763;52.220;13.000;2024-02-28T14:20:45;7.20;59.20
82183;DHT22;71763;52.220;13.000;2024-02-28T14:23:10;7.20;58.90
82183;DHT22;71763;52.220;13.000;2024-02-28T14:25:36;7.20;59.10
82183;DHT22;71763;52.220;13.000;2024-02-28T14:28:01;7.10;58.70
82183;DHT22;71763;52.220;13.000;2024-02-28T14:30:27;7.20;59.20
82183;DHT22;71763;52.220;13.000;2024-02-28T14:32:52;7.10;59.00
82183;DHT22;71763;52.220;13.000;2024-02-28T14:35:18;7.10;59.00
82183;DHT22;71763;52.220;13.000;2024-02-28T14:37:43;7.20;59.00
82183;DHT22;71763;52.220;13.000;2024-02-28T14:40:09;7.20;59.10
82183;DHT22;71763;52.220;13.000;2024-02-28T14:42:38;7.10;58.90
82183;DHT22;71763;52.220;13.000;2024-02-28T14:45:05;7.10;58.90
82183;DHT22;71763;52.220;13.000;2024-02-28T14:47:31;7.10;59.50
82183;DHT22;71763;52.220;13.000;2024-02-28T14:49:56;7.20;59.00
82183;DHT22;71763;52.220;13.000;2024-02-28T14:52:22;7.10;58.80
82183;DHT22;71763;52.220;13.000;2024-02-28T14:54:49;7.20;58.90
82183;DHT22;71763;52.220;13.000;2024-02-28T14:57:14;7.20;58.90
82183;DHT22;71763;52.220;13.000;2024-02-28T14:59:41;7.20;58.80
82183;DHT22;71763;52.220;13.000;2024-02-28T15:02:07;7.20;58.80
82183;DHT22;71763;52.220;13.000;2024-02-28T15:04:33;7.20;58.80
82183;DHT22;71763;52.220;13.000;2024-02-28T15:06:59;7.20;58.80
82183;DHT22;71763;52.220;13.000;2024-02-28T15:09:24;7.20;58.80
82183;DHT22;71763;52.220;13.000;2024-02-28T15:11:50;7.20;58.70
82183;DHT22;71763;52.220;13.000;2024-02-28T15:14:15;7.20;58.70
82183;DHT22;71763;52.220;13.000;2024-02-28T15:16:41;7.20;58.60
82183;DHT22;71763;52.220;13.000;2024-02-28T15:19:07;7.20;58.60
82183;DHT22;71763;52.220;13.000;2024-02-28T15:21:32;7.20;58.60